Time;durP1;ratioP1;P1;durP2;ratioP2;P2;SDS_P1;SDS_P2;PMS_P1;PMS_P2;Temp;Humidity;BMP_temperature;BMP_pressure;BME280_temperature;BME280_humidity;BME280_pressure;Samples;Min_cycle;Max_cycle;Signal;HPM_P1;HPM_P2
2022/08/17 00:01:55;;;;;;;13.73;12.38;;;23.30;82.90;;;;;;5091532;28;20024;-62
2022/08/17 00:04:21;;;;;;;12.57;11.48;;;23.20;83.10;;;;;;5089949;28;20020;-62
2022/08/17 00:06:48;;;;;;;12.43;11.23;;;23.20;83.30;;;;;;5092074;28;20055;-62
2022/08/17 00:09:13;;;;;;;13.73;12.35;;;23.30;83.50;;;;;;5089456;28;20020;-62
2022/08/17 00:11:41;;;;;;;16.27;14.73;;;23.30;83.70;;;;;;5082568;28;20047;-62
2022/08/17 00:14:11;;;;;;;14.90;12.90;;;23.30;84.10;;;;;;5089201;28;20059;-63
2022/08/17 00:16:38;;;;;;;;;;;23.30;84.20;;;;;;5092099;28;20050;-62
2022/08/17 00:19:07;;;;;;;14.75;13.10;;;23.20;84.30;;;;;;5092168;28;19936;-62
2022/08/17 00:21:34;;;;;;;;;;;23.10;85.00;;;;;;5092453;28;20085;-62
2022/08/17 00:23:59;;;;;;;14.70;13.23;;;23.10;85.10;;;;;;5089328;28;19914;-62
2022/08/17 00:26:26;;;;;;;15.38;13.98;;;23.00;85.60;;;;;;5088755;28;20112;-62
2022/08/17 00:28:52;;;;;;;15.55;14.15;;;23.00;85.70;;;;;;5092009;28;20121;-62
2022/08/17 00:31:18;;;;;;;15.07;13.57;;;23.10;85.80;;;;;;5090173;28;20085;-62
2022/08/17 00:33:44;;;;;;;15.02;13.52;;;23.00;85.90;;;;;;5091793;28;20027;-62
2022/08/17 00:36:10;;;;;;;15.70;14.05;;;23.10;86.10;;;;;;5091815;28;20131;-62
2022/08/17 00:38:36;;;;;;;15.18;13.57;;;23.00;86.20;;;;;;5091318;28;20023;-63
2022/08/17 00:41:06;;;;;;;14.23;12.93;;;23.00;86.40;;;;;;5087311;28;20040;-62
2022/08/17 00:43:45;;;;;;;14.75;13.38;;;23.00;86.50;;;;;;5091716;28;20055;-62
2022/08/17 00:46:19;;;;;;;;;;;23.00;86.60;;;;;;5105515;28;20029;-62
2022/08/17 00:48:45;;;;;;;14.40;12.95;;;22.90;86.80;;;;;;5088626;28;19918;-62
2022/08/17 00:51:37;;;;;;;14.15;12.75;;;22.90;87.20;;;;;;5091317;28;20455;-62
2022/08/17 00:54:10;;;;;;;13.73;12.43;;;22.90;86.90;;;;;;5087734;28;20020;-62
2022/08/17 00:56:44;;;;;;;13.15;11.75;;;22.90;87.10;;;;;;5087080;28;20027;-62
2022/08/17 00:59:12;;;;;;;13.82;12.40;;;22.90;87.20;;;;;;5091402;28;20307;-62
2022/08/17 01:01:38;;;;;;;14.10;12.85;;;22.90;87.20;;;;;;5091155;28;20031;-62
2022/08/17 01:04:04;;;;;;;16.52;14.93;;;22.90;87.20;;;;;;5091299;28;20136;-62
2022/08/17 01:06:31;;;;;;;15.38;13.95;;;22.90;87.50;;;;;;5091177;28;20039;-62
2022/08/17 01:08:59;;;;;;;13.52;12.23;;;22.90;87.60;;;;;;5090870;28;20103;-62
2022/08/17 01:11:26;;;;;;;14.95;13.45;;;22.90;87.80;;;;;;5091431;28;20085;-62
2022/08/17 01:13:52;;;;;;;14.88;12.90;;;22.90;87.80;;;;;;5090885;28;20028;-62
2022/08/17 01:16:23;;;;;;;14.75;13.35;;;22.90;87.80;;;;;;5082320;28;20035;-62
2022/08/17 01:18:53;;;;;;;14.02;12.73;;;22.90;87.80;;;;;;5076858;28;20024;-62
2022/08/17 01:21:26;;;;;;;14.30;12.90;;;22.90;88.00;;;;;;5085483;28;20054;-62
2022/08/17 01:23:52;;;;;;;12.65;11.43;;;22.90;88.00;;;;;;5091226;28;20070;-62
2022/08/17 01:26:18;;;;;;;13.13;11.93;;;22.80;88.00;;;;;;5090226;28;20028;-62
2022/08/17 01:28:45;;;;;;;13.70;12.40;;;22.80;88.10;;;;;;5090791;28;20033;-62
2022/08/17 01:31:11;;;;;;;14.40;13.02;;;22.80;88.10;;;;;;5088219;28;20094;-62
2022/08/17 01:33:36;;;;;;;13.80;12.63;;;22.80;88.30;;;;;;5088999;28;20066;-62
2022/08/17 01:36:05;;;;;;;13.48;12.27;;;22.80;88.30;;;;;;5090302;28;20057;-63
2022/08/17 01:38:32;;;;;;;16.42;14.93;;;22.80;88.90;;;;;;5091300;28;20413;-62
2022/08/17 01:41:01;;;;;;;15.75;14.15;;;22.80;88.50;;;;;;5086126;28;20454;-62
2022/08/17 01:43:34;;;;;;;14.38;13.10;;;22.80;88.60;;;;;;5090564;28;20031;-62
2022/08/17 01:46:01;;;;;;;16.05;14.60;;;22.70;88.60;;;;;;5089054;28;20028;-62
2022/08/17 01:48:38;;;;;;;14.55;13.10;;;22.70;88.70;;;;;;5084943;28;20512;-62
2022/08/17 01:51:06;;;;;;;15.38;14.07;;;22.70;88.50;;;;;;5087430;28;20115;-62
2022/08/17 01:53:41;;;;;;;14.55;13.35;;;22.70;88.60;;;;;;5088925;28;20089;-62
2022/08/17 01:56:11;;;;;;;17.05;15.35;;;22.70;88.60;;;;;;5088352;28;20358;-62
2022/08/17 01:58:38;;;;;;;13.88;12.55;;;22.70;88.80;;;;;;5090027;28;20121;-62
2022/08/17 02:01:05;;;;;;;14.98;13.63;;;22.60;88.80;;;;;;5086106;28;20060;-63
2022/08/17 02:03:33;;;;;;;15.45;14.15;;;22.60;88.90;;;;;;5090156;28;20030;-62
2022/08/17 02:05:59;;;;;;;13.75;12.02;;;22.60;89.60;;;;;;5088651;28;20035;-63
2022/08/17 02:08:27;;;;;;;13.13;11.93;;;22.60;89.00;;;;;;5090054;28;20028;-62
2022/08/17 02:10:53;;;;;;;14.43;12.98;;;22.60;89.00;;;;;;5088524;28;20031;-62
2022/08/17 02:13:19;;;;;;;14.02;12.82;;;22.60;89.00;;;;;;5086647;28;20035;-62
2022/08/17 02:15:45;;;;;;;13.27;11.88;;;22.50;89.10;;;;;;5089868;28;20024;-62
2022/08/17 02:18:11;;;;;;;14.20;12.90;;;22.50;89.10;;;;;;5089552;28;20374;-62
2022/08/17 02:20:37;;;;;;;15.45;14.13;;;22.40;89.10;;;;;;5087923;28;20028;-62
2022/08/17 02:23:07;;;;;;;15.73;14.18;;;22.40;89.30;;;;;;5089830;28;20023;-62
2022/08/17 02:25:34;;;;;;;14.15;12.95;;;22.40;89.60;;;;;;5086819;28;20027;-62
2022/08/17 02:28:00;;;;;;;13.93;12.55;;;22.40;89.70;;;;;;5086757;28;20027;-62
2022/08/17 02:30:25;;;;;;;15.50;14.10;;;22.40;89.80;;;;;;5100373;28;20491;-62
2022/08/17 02:32:52;;;;;;;14.90;13.50;;;22.30;89.80;;;;;;5090246;28;20028;-62
2022/08/17 02:35:18;;;;;;;17.48;13.48;;;22.30;89.90;;;;;;5083481;28;20541;-62
2022/08/17 02:37:43;;;;;;;14.23;12.82;;;22.30;90.00;;;;;;5089632;28;20107;-62
2022/08/17 02:40:10;;;;;;;16.55;14.55;;;22.20;90.00;;;;;;5086537;28;20028;-62
2022/08/17 02:42:39;;;;;;;14.20;12.90;;;22.20;90.00;;;;;;5076041;28;20094;-62
2022/08/17 02:45:09;;;;;;;15.50;13.90;;;22.20;90.10;;;;;;5085772;28;20389;-62
2022/08/17 02:47:35;;;;;;;14.20;13.00;;;22.20;90.20;;;;;;5089288;28;20027;-62
2022/08/17 02:50:01;;;;;;;13.98;12.73;;;22.10;90.30;;;;;;5088473;28;20442;-62
2022/08/17 02:52:32;;;;;;;15.63;14.13;;;22.10;90.30;;;;;;5076656;28;20048;-62
2022/08/17 02:54:58;;;;;;;14.65;13.27;;;22.10;90.40;;;;;;5088957;28;20059;-62
2022/08/17 02:57:23;;;;;;;15.35;13.85;;;22.00;90.40;;;;;;5088610;28;20056;-62
2022/08/17 02:59:49;;;;;;;14.23;12.98;;;22.00;90.50;;;;;;5088142;28;20478;-62
2022/08/17 03:02:15;;;;;;;17.63;15.93;;;22.00;90.50;;;;;;5084342;28;20595;-62
2022/08/17 03:04:40;;;;;;;18.02;16.30;;;22.00;90.60;;;;;;5086356;28;20024;-62
2022/08/17 03:07:06;;;;;;;17.52;15.82;;;22.00;90.70;;;;;;5086073;28;20023;-62
2022/08/17 03:09:31;;;;;;;17.52;15.93;;;21.90;90.80;;;;;;5060314;28;20493;-62
2022/08/17 03:12:05;;;;;;;15.43;14.07;;;21.90;90.90;;;;;;5083648;28;20024;-62
2022/08/17 03:14:31;;;;;;;17.00;15.30;;;21.90;90.90;;;;;;5088722;28;20107;-62
2022/08/17 03:16:57;;;;;;;16.40;14.80;;;21.80;91.00;;;;;;5087869;28;20020;-62
2022/08/17 03:19:23;;;;;;;15.23;13.82;;;21.80;91.00;;;;;;5085289;28;20040;-62
2022/08/17 03:21:48;;;;;;;14.00;12.70;;;21.80;91.00;;;;;;5084436;28;20021;-62
2022/08/17 03:24:14;;;;;;;13.77;12.60;;;21.80;91.00;;;;;;5085864;28;20870;-62
2022/08/17 03:26:39;;;;;;;14.13;12.73;;;21.80;91.10;;;;;;5088268;28;20038;-62
2022/08/17 03:29:05;;;;;;;13.60;12.40;;;21.70;91.10;;;;;;5088381;28;20020;-62
2022/08/17 03:31:31;;;;;;;13.63;12.25;;;21.70;91.00;;;;;;5087066;28;20440;-62
2022/08/17 03:33:56;;;;;;;13.35;12.20;;;21.80;91.10;;;;;;5088397;28;20512;-62
2022/08/17 03:36:22;;;;;;;13.32;12.13;;;21.80;91.00;;;;;;5088473;28;20539;-62
2022/08/17 03:38:47;;;;;;;14.45;13.00;;;21.70;91.00;;;;;;5085661;28;20540;-62
2022/08/17 03:41:13;;;;;;;13.55;12.35;;;21.70;91.00;;;;;;5075466;28;20087;-62
2022/08/17 03:43:39;;;;;;;14.77;13.30;;;21.70;91.10;;;;;;5098065;28;20366;-62
2022/08/17 03:57:06;;;;;;;16.88;15.13;;;21.60;91.60;;;;;;5085829;28;20035;-63
2022/08/17 03:59:33;;;;;;;17.67;15.98;;;21.50;91.70;;;;;;5083013;28;20024;-62
2022/08/17 04:02:10;;;;;;;17.83;16.13;;;21.50;91.80;;;;;;5084692;28;20115;-62
2022/08/17 04:04:36;;;;;;;17.00;15.40;;;21.50;91.90;;;;;;5087599;28;20081;-62
2022/08/17 04:07:02;;;;;;;16.40;14.90;;;21.50;92.00;;;;;;5087336;28;20127;-62
2022/08/17 04:09:28;;;;;;;18.20;16.42;;;21.50;92.10;;;;;;5085636;28;20107;-62
2022/08/17 04:11:53;;;;;;;17.10;15.50;;;21.40;92.20;;;;;;5085437;28;20028;-62
2022/08/17 04:14:35;;;;;;;18.27;16.48;;;21.40;92.30;;;;;;5083768;28;20020;-62
2022/08/17 04:17:01;;;;;;;15.55;14.05;;;21.40;92.30;;;;;;5088228;28;20020;-62
2022/08/17 04:19:26;;;;;;;17.58;15.90;;;21.40;92.40;;;;;;5088069;28;20490;-62
2022/08/17 04:21:52;;;;;;;16.45;14.95;;;21.30;92.50;;;;;;5099404;28;20027;-63
2022/08/17 04:24:17;;;;;;;17.27;15.60;;;21.40;92.60;;;;;;5087937;28;20032;-62
2022/08/17 04:26:43;;;;;;;17.00;15.50;;;21.30;92.60;;;;;;5081482;28;20105;-62
2022/08/17 04:29:08;;;;;;;17.90;16.20;;;21.30;92.70;;;;;;5088833;28;20028;-62
2022/08/17 04:31:34;;;;;;;17.73;15.88;;;21.30;92.80;;;;;;5091784;28;20089;-63
2022/08/17 04:34:00;;;;;;;15.75;14.38;;;21.30;92.80;;;;;;5075576;28;20481;-62
2022/08/17 04:36:25;;;;;;;14.77;13.48;;;21.30;92.90;;;;;;5086165;28;20039;-62
2022/08/17 04:38:51;;;;;;;15.43;13.98;;;21.30;92.90;;;;;;5091592;28;20024;-62
2022/08/17 04:44:03;;;;;;;13.93;12.52;;;21.30;92.90;;;;;;5086075;28;20042;-62
2022/08/17 04:46:31;;;;;;;12.93;11.63;;;21.30;92.90;;;;;;5087249;28;20118;-62
2022/08/17 04:48:57;;;;;;;13.30;11.88;;;21.30;92.80;;;;;;5088616;28;20449;-62
2022/08/17 04:51:36;;;;;;;13.25;11.90;;;21.40;92.80;;;;;;5091320;28;20028;-62
2022/08/17 04:54:05;;;;;;;14.75;12.32;;;21.40;92.60;;;;;;5088805;28;20012;-62
2022/08/17 04:56:32;;;;;;;12.20;11.10;;;21.40;92.60;;;;;;5091041;28;20036;-63
2022/08/17 04:59:01;;;;;;;14.25;12.98;;;21.40;92.50;;;;;;5086769;28;20024;-62
2022/08/17 05:01:28;;;;;;;18.83;17.08;;;21.50;92.50;;;;;;5080567;28;20378;-62
2022/08/17 05:03:57;;;;;;;15.93;14.32;;;21.40;92.50;;;;;;5091554;28;20036;-62
2022/08/17 05:06:24;;;;;;;17.23;15.57;;;21.40;92.60;;;;;;5085662;28;20488;-62
2022/08/17 05:08:49;;;;;;;13.73;12.32;;;21.40;92.70;;;;;;5076049;28;20527;-63
2022/08/17 05:11:15;;;;;;;15.98;14.57;;;21.40;92.70;;;;;;5090940;28;20028;-62
2022/08/17 05:13:40;;;;;;;14.60;13.18;;;21.40;92.70;;;;;;5084657;28;20034;-62
2022/08/17 05:16:07;;;;;;;13.23;12.02;;;21.40;92.70;;;;;;5087291;28;20058;-62
2022/08/17 05:18:33;;;;;;;12.68;11.60;;;21.40;92.70;;;;;;5088417;28;20135;-62
2022/08/17 05:20:59;;;;;;;13.20;11.82;;;21.50;92.70;;;;;;5087960;28;20111;-62
2022/08/17 05:23:26;;;;;;;14.63;13.23;;;21.50;92.70;;;;;;5090791;28;20027;-62
2022/08/17 05:25:54;;;;;;;13.18;12.05;;;21.50;92.60;;;;;;5091063;28;20488;-62
2022/08/17 05:28:20;;;;;;;12.73;11.50;;;21.60;92.60;;;;;;5087606;28;20028;-62
2022/08/17 05:30:47;;;;;;;13.20;12.00;;;21.50;92.60;;;;;;5088127;28;20012;-62
2022/08/17 05:33:17;;;;;;;11.95;10.80;;;21.60;92.60;;;;;;5088223;28;20071;-62
2022/08/17 05:35:45;;;;;;;12.98;11.65;;;21.60;92.60;;;;;;5086206;28;20027;-62
2022/08/17 05:38:12;;;;;;;11.85;10.65;;;21.60;92.50;;;;;;5090341;28;20094;-62
2022/08/17 05:40:39;;;;;;;11.35;10.25;;;21.60;92.50;;;;;;5085741;28;20131;-62
2022/08/17 05:43:12;;;;;;;12.75;11.65;;;21.70;92.40;;;;;;5090559;28;20528;-62
2022/08/17 05:46:27;;;;;;;14.98;13.50;;;21.70;92.40;;;;;;5090531;28;20056;-62
2022/08/17 05:49:04;;;;;;;11.60;10.50;;;21.70;92.30;;;;;;5069506;28;20024;-62
2022/08/17 05:51:48;;;;;;;12.10;11.00;;;21.70;92.40;;;;;;5088600;28;20024;-62
2022/08/17 05:54:40;;;;;;;12.07;10.98;;;21.70;92.40;;;;;;5087280;28;20103;-62
2022/08/17 05:57:40;;;;;;;14.02;12.63;;;21.70;92.30;;;;;;5085182;28;20154;-62
2022/08/17 06:00:23;;;;;;;15.43;13.93;;;21.70;92.20;;;;;;5100852;28;20385;-62
2022/08/17 06:03:15;;;;;;;16.98;15.25;;;21.70;92.20;;;;;;5087547;28;20103;-62
2022/08/17 06:05:57;;;;;;;18.73;16.88;;;21.70;92.20;;;;;;5087626;28;20040;-62
2022/08/17 06:08:48;;;;;;;16.60;14.93;;;21.70;92.30;;;;;;5085550;28;20193;-62
2022/08/17 06:11:32;;;;;;;17.55;15.75;;;21.70;92.30;;;;;;5087896;28;20023;-62
2022/08/17 06:14:06;;;;;;;16.02;14.23;;;21.70;92.30;;;;;;5091964;28;20478;-62
2022/08/17 06:16:46;;;;;;;14.10;12.65;;;21.60;92.40;;;;;;5099156;28;20021;-62
2022/08/17 06:19:30;;;;;;;15.18;13.13;;;21.70;92.30;;;;;;5082189;28;20017;-62
2022/08/17 06:21:58;;;;;;;13.65;12.35;;;21.70;92.30;;;;;;5093271;28;20021;-62
2022/08/17 06:24:33;;;;;;;15.02;13.57;;;21.70;92.20;;;;;;5086465;28;20020;-62
2022/08/17 06:27:23;;;;;;;13.25;11.95;;;21.80;92.10;;;;;;5087448;28;20107;-63
2022/08/17 06:30:10;;;;;;;15.48;13.98;;;21.80;92.10;;;;;;5093453;28;20090;-62
2022/08/17 06:32:38;;;;;;;14.65;13.15;;;21.80;92.00;;;;;;5085813;28;20034;-62
2022/08/17 06:35:08;;;;;;;14.15;12.70;;;21.80;92.00;;;;;;5091691;28;20401;-62
2022/08/17 06:37:59;;;;;;;15.40;13.30;;;21.80;92.20;;;;;;5088470;28;20026;-62
2022/08/17 06:40:49;;;;;;;14.18;12.88;;;21.90;91.80;;;;;;5086058;28;20024;-62
2022/08/17 06:43:31;;;;;;;13.90;12.50;;;21.90;91.80;;;;;;5088768;28;20106;-63
2022/08/17 06:46:20;;;;;;;12.73;11.60;;;22.00;91.90;;;;;;5082743;28;20024;-62
2022/08/17 06:48:52;;;;;;;14.73;13.32;;;22.00;91.70;;;;;;5081464;28;20051;-62
2022/08/17 06:51:30;;;;;;;14.63;13.02;;;22.10;91.80;;;;;;5088310;28;20012;-62
2022/08/17 06:54:05;;;;;;;12.32;11.23;;;22.10;91.70;;;;;;5091498;28;20099;-62
2022/08/17 06:57:21;;;;;;;12.00;10.90;;;22.20;91.60;;;;;;5090988;28;20507;-62
2022/08/17 06:59:49;;;;;;;12.50;11.40;;;22.20;91.50;;;;;;5048968;28;20037;-62
2022/08/17 07:02:23;;;;;;;10.93;9.82;;;22.30;91.60;;;;;;5047913;28;20025;-62
2022/08/17 07:04:49;;;;;;;12.43;11.30;;;22.40;91.50;;;;;;5077568;28;20516;-62
2022/08/17 07:10:04;;;;;;;16.13;14.45;;;22.50;91.30;;;;;;5091100;28;20023;-62
2022/08/17 07:12:38;;;;;;;14.98;13.55;;;22.40;91.20;;;;;;5077578;28;20403;-62
2022/08/17 07:15:12;;;;;;;14.23;12.68;;;22.50;91.30;;;;;;5090175;28;20103;-62
2022/08/17 07:17:39;;;;;;;15.88;14.38;;;22.50;91.20;;;;;;5086847;28;20016;-63
2022/08/17 07:20:16;;;;;;;16.55;14.93;;;22.50;91.20;;;;;;5085918;28;20032;-62
2022/08/17 07:22:54;;;;;;;14.07;12.88;;;22.50;91.10;;;;;;5092414;28;20103;-62
2022/08/17 07:25:20;;;;;;;14.60;13.25;;;22.50;91.20;;;;;;5074174;28;20035;-62
2022/08/17 07:27:54;;;;;;;15.57;13.38;;;22.50;91.20;;;;;;5088344;28;20095;-62
2022/08/17 07:30:27;;;;;;;13.60;11.77;;;22.50;91.10;;;;;;5082544;28;20028;-62
2022/08/17 07:32:57;;;;;;;14.02;12.73;;;22.60;91.10;;;;;;5090788;28;20481;-62
2022/08/17 07:35:28;;;;;;;14.55;12.60;;;22.60;91.10;;;;;;5083558;28;20047;-62
2022/08/17 07:38:16;;;;;;;17.25;15.65;;;22.60;91.00;;;;;;5077133;28;20112;-62
2022/08/17 07:40:56;;;;;;;18.73;16.88;;;22.60;91.00;;;;;;5085613;28;20398;-62
2022/08/17 07:43:21;;;;;;;15.85;14.43;;;22.70;91.10;;;;;;5087995;28;20027;-62
2022/08/17 07:48:48;;;;;;;13.63;12.27;;;22.70;91.00;;;;;;5089726;28;20428;-62
2022/08/17 07:51:43;;;;;;;17.50;15.68;;;22.80;91.00;;;;;;5090451;28;20108;-62
2022/08/17 07:54:14;;;;;;;16.52;14.93;;;22.80;90.90;;;;;;5075448;28;20507;-62
2022/08/17 07:56:48;;;;;;;15.45;13.95;;;22.90;91.00;;;;;;5085130;28;20024;-62
2022/08/17 07:59:38;;;;;;;14.90;13.40;;;22.90;90.80;;;;;;5086175;28;20485;-62
2022/08/17 08:02:15;;;;;;;;;;;23.00;90.80;;;;;;5084583;28;20034;-62
2022/08/17 08:05:01;;;;;;;13.02;11.63;;;23.00;90.90;;;;;;5097440;28;19904;-62
2022/08/17 08:07:34;;;;;;;14.48;13.07;;;23.10;90.70;;;;;;5085865;28;20064;-62
2022/08/17 08:10:14;;;;;;;13.45;12.20;;;23.10;90.60;;;;;;5094423;28;20019;-62
2022/08/17 08:12:41;;;;;;;16.30;14.77;;;23.20;90.60;;;;;;5089087;28;20098;-62
2022/08/17 08:15:19;;;;;;;15.40;14.02;;;23.20;90.50;;;;;;5089137;28;20016;-62
2022/08/17 08:17:47;;;;;;;14.57;13.23;;;23.30;90.30;;;;;;5091521;28;20085;-62
2022/08/17 08:20:13;;;;;;;14.65;13.15;;;23.20;90.30;;;;;;5094245;28;20024;-62
2022/08/17 08:23:04;;;;;;;14.77;13.43;;;23.40;90.30;;;;;;5095147;28;20524;-62
2022/08/17 08:25:50;;;;;;;15.18;13.68;;;23.40;90.00;;;;;;5091628;28;20111;-62
2022/08/17 08:28:34;;;;;;;14.43;12.98;;;23.50;90.00;;;;;;5094636;28;20024;-62
2022/08/17 08:31:23;;;;;;;12.98;11.75;;;23.50;90.00;;;;;;5083159;28;20153;-62
2022/08/17 08:34:09;;;;;;;15.00;13.70;;;23.50;89.90;;;;;;5090715;28;20016;-62
2022/08/17 08:37:22;;;;;;;14.18;12.77;;;23.40;90.20;;;;;;5090049;28;20105;-62
2022/08/17 08:40:01;;;;;;;17.15;15.55;;;23.40;89.80;;;;;;5087842;28;20043;-62
2022/08/17 08:42:51;;;;;;;21.33;18.73;;;23.30;90.00;;;;;;5086938;28;20048;-61
2022/08/17 08:45:31;;;;;;;21.40;18.88;;;23.30;90.10;;;;;;5081355;28;20123;-61
2022/08/17 08:48:15;;;;;;;15.13;13.65;;;23.20;90.60;;;;;;5092480;28;20020;-61
2022/08/17 08:51:08;;;;;;;18.55;16.60;;;23.10;90.80;;;;;;5084332;28;20550;-61
2022/08/17 08:54:08;;;;;;;15.85;13.73;;;23.10;91.40;;;;;;5092161;28;20044;-61
2022/08/17 08:56:46;;;;;;;18.65;16.58;;;23.00;91.40;;;;;;5090204;28;20016;-61
2022/08/17 08:59:36;;;;;;;20.58;18.58;;;23.00;92.00;;;;;;5093260;28;20024;-61
2022/08/17 09:02:22;;;;;;;24.23;21.48;;;22.90;92.40;;;;;;5085336;28;20032;-61
2022/08/17 09:04:55;;;;;;;18.25;16.35;;;22.80;93.20;;;;;;5083311;28;20488;-61
2022/08/17 09:07:47;;;;;;;25.65;22.98;;;22.70;93.40;;;;;;5095004;28;20024;-61
2022/08/17 09:10:32;;;;;;;19.92;17.92;;;22.80;93.40;;;;;;5090723;28;20060;-62
2022/08/17 09:13:12;;;;;;;16.33;14.68;;;22.90;93.50;;;;;;5090463;28;20042;-61
2022/08/17 09:15:44;;;;;;;21.58;19.35;;;23.00;93.30;;;;;;5091018;28;20389;-61
2022/08/17 09:18:15;;;;;;;18.77;16.98;;;23.20;93.40;;;;;;5094076;28;20031;-61
2022/08/17 09:20:48;;;;;;;18.42;16.67;;;23.30;93.30;;;;;;5094374;28;20024;-61
2022/08/17 09:23:29;;;;;;;17.30;15.60;;;23.40;93.20;;;;;;5093992;28;20028;-62
2022/08/17 09:26:21;;;;;;;14.75;13.35;;;23.70;93.10;;;;;;5091805;28;20035;-61
2022/08/17 09:28:50;;;;;;;13.80;12.52;;;23.90;92.90;;;;;;5088683;28;20012;-61
2022/08/17 09:31:30;;;;;;;;;;;24.20;92.50;;;;;;5093832;28;20016;-61
2022/08/17 09:33:58;;;;;;;11.85;10.80;;;24.40;92.30;;;;;;5092833;28;20003;-61
2022/08/17 09:36:32;;;;;;;14.40;13.10;;;24.60;92.10;;;;;;5088022;28;20084;-62
2022/08/17 09:39:10;;;;;;;13.85;12.55;;;24.70;91.80;;;;;;5093140;28;20039;-62
2022/08/17 09:42:16;;;;;;;14.57;13.18;;;24.90;91.60;;;;;;5093965;28;20501;-61
2022/08/17 09:44:52;;;;;;;13.68;12.35;;;25.00;91.40;;;;;;5079846;28;20028;-61
2022/08/17 09:47:44;;;;;;;14.90;13.48;;;25.00;91.40;;;;;;5093801;28;20020;-61
2022/08/17 09:50:45;;;;;;;11.48;10.48;;;25.10;91.30;;;;;;5093021;28;20019;-62
2022/08/17 09:53:11;;;;;;;14.02;12.73;;;25.30;91.20;;;;;;5091121;28;20028;-61
2022/08/17 09:55:54;;;;;;;11.15;10.15;;;25.30;90.90;;;;;;5093344;28;20501;-62
2022/08/17 09:58:55;;;;;;;12.02;10.82;;;25.50;90.70;;;;;;5078768;28;20153;-62
2022/08/17 10:01:39;;;;;;;11.68;10.65;;;25.70;90.50;;;;;;5055103;28;20486;-62
2022/08/17 10:04:15;;;;;;;11.70;10.65;;;25.80;90.30;;;;;;5077063;28;20025;-62
2022/08/17 10:06:56;;;;;;;12.20;10.90;;;25.80;90.20;;;;;;5089690;28;20119;-62
2022/08/17 10:09:40;;;;;;;12.30;11.27;;;25.90;90.00;;;;;;5092887;28;20068;-62
2022/08/17 10:12:14;;;;;;;12.60;11.38;;;25.90;89.90;;;;;;5089228;28;20017;-62
2022/08/17 10:15:17;;;;;;;12.52;11.32;;;25.90;89.70;;;;;;5092684;28;20489;-62
2022/08/17 10:18:17;;;;;;;12.57;11.27;;;25.90;89.40;;;;;;5092860;28;20023;-62
2022/08/17 10:20:43;;;;;;;11.48;10.48;;;25.80;89.30;;;;;;5093314;28;20028;-62
2022/08/17 10:26:26;;;;;;;12.13;11.02;;;25.70;89.50;;;;;;5089747;28;20089;-62
2022/08/17 10:28:58;;;;;;;12.48;11.27;;;25.60;89.20;;;;;;5091651;28;20115;-62
2022/08/17 10:31:31;;;;;;;12.43;11.32;;;25.40;89.30;;;;;;5083696;28;20012;-61
2022/08/17 10:34:31;;;;;;;12.73;11.55;;;25.40;89.30;;;;;;5090866;28;20020;-62
2022/08/17 10:37:07;;;;;;;12.05;10.93;;;25.40;88.90;;;;;;5091038;28;20028;-62
2022/08/17 10:39:46;;;;;;;12.15;11.07;;;25.40;88.90;;;;;;5082269;28;20052;-62
2022/08/17 10:42:25;;;;;;;11.33;10.33;;;25.40;88.50;;;;;;5077016;28;20178;-62
2022/08/17 10:44:59;;;;;;;12.38;11.20;;;25.40;88.40;;;;;;5090484;28;20070;-62
2022/08/17 10:48:03;;;;;;;12.30;11.00;;;25.30;88.30;;;;;;5087365;28;20502;-62
2022/08/17 10:51:02;;;;;;;13.70;12.45;;;25.30;88.10;;;;;;5090661;28;20063;-62
2022/08/17 10:53:30;;;;;;;11.90;10.90;;;25.30;88.10;;;;;;5091339;28;20058;-62
2022/08/17 10:56:16;;;;;;;14.02;12.82;;;25.20;88.20;;;;;;5088676;28;20032;-62
2022/08/17 10:59:06;;;;;;;12.93;11.73;;;25.20;88.10;;;;;;5086461;28;20023;-62
2022/08/17 11:01:39;;;;;;;13.30;12.02;;;25.10;88.30;;;;;;5087320;28;20511;-61
2022/08/17 11:04:17;;;;;;;13.38;12.18;;;25.00;88.60;;;;;;5088725;28;20035;-62
2022/08/17 11:07:11;;;;;;;12.60;11.50;;;25.00;88.50;;;;;;5091933;28;20032;-62
2022/08/17 11:09:53;;;;;;;14.65;12.27;;;24.90;88.60;;;;;;5085955;28;20095;-62
2022/08/17 11:12:49;;;;;;;12.98;11.88;;;24.80;89.10;;;;;;5088820;28;20466;-61
2022/08/17 11:15:30;;;;;;;13.32;12.07;;;24.70;89.80;;;;;;5079899;28;20024;-62
2022/08/17 11:18:04;;;;;;;13.30;12.10;;;24.70;89.60;;;;;;5088863;28;20077;-62
2022/08/17 11:21:06;;;;;;;13.20;12.00;;;24.60;90.00;;;;;;5087526;28;20096;-61
2022/08/17 11:23:47;;;;;;;14.18;12.88;;;24.60;90.00;;;;;;5087710;28;20013;-62
2022/08/17 11:26:26;;;;;;;12.75;11.63;;;24.50;90.20;;;;;;5090831;28;20016;-62
2022/08/17 11:29:23;;;;;;;;;;;24.40;90.20;;;;;;5088836;28;20099;-63
2022/08/17 11:32:35;;;;;;;11.38;10.48;;;24.30;90.40;;;;;;5060532;28;19908;-62
2022/08/17 11:35:30;;;;;;;12.23;11.13;;;24.30;90.40;;;;;;5090430;28;20051;-62
2022/08/17 11:38:25;;;;;;;12.48;11.27;;;24.40;90.30;;;;;;5093167;28;20031;-61
2022/08/17 11:41:05;;;;;;;12.57;11.48;;;24.50;90.40;;;;;;5093225;28;20043;-62
2022/08/17 11:44:14;;;;;;;13.25;12.07;;;24.50;90.50;;;;;;5097052;28;20183;-62
2022/08/17 11:53:52;;;;;;;13.30;12.02;;;24.50;90.80;;;;;;5095169;28;20054;-62
2022/08/17 11:56:34;;;;;;;12.02;10.80;;;24.40;90.90;;;;;;5095709;28;20024;-62
2022/08/17 11:59:00;;;;;;;11.15;10.18;;;24.40;90.90;;;;;;5094889;28;20088;-62
2022/08/17 12:01:27;;;;;;;12.30;11.10;;;24.40;91.00;;;;;;5098550;28;20028;-61
2022/08/17 12:04:13;;;;;;;12.88;11.68;;;24.50;90.90;;;;;;5098609;28;20024;-62
2022/08/17 12:06:42;;;;;;;11.35;10.35;;;24.50;90.80;;;;;;5098037;28;20028;-61
2022/08/17 12:09:19;;;;;;;12.75;11.55;;;24.50;90.80;;;;;;5098957;28;20095;-62
2022/08/17 12:11:54;;;;;;;10.95;9.88;;;24.50;90.70;;;;;;5096532;28;20038;-62
2022/08/17 12:14:26;;;;;;;11.27;10.30;;;24.50;90.70;;;;;;5095643;28;20036;-61
2022/08/17 12:17:11;;;;;;;11.18;10.20;;;24.50;90.60;;;;;;5089655;28;20031;-62
2022/08/17 12:19:38;;;;;;;11.45;10.45;;;24.50;90.80;;;;;;5094312;28;20012;-62
2022/08/17 12:22:24;;;;;;;10.65;9.65;;;24.40;90.90;;;;;;5096281;28;20081;-61
2022/08/17 12:25:00;;;;;;;11.02;10.02;;;24.40;91.00;;;;;;5080172;28;20025;-62
2022/08/17 12:27:32;;;;;;;10.35;9.52;;;24.30;91.00;;;;;;5080733;28;20032;-62
2022/08/17 12:29:58;;;;;;;11.27;10.18;;;24.30;91.00;;;;;;5090898;28;20546;-62
2022/08/17 12:32:32;;;;;;;10.35;9.45;;;24.30;91.00;;;;;;5084840;28;20024;-61
2022/08/17 12:34:58;;;;;;;9.65;8.85;;;24.30;90.90;;;;;;5091695;28;20103;-61
2022/08/17 12:37:30;;;;;;;10.13;9.23;;;24.20;90.90;;;;;;5098073;28;20028;-62
2022/08/17 12:39:59;;;;;;;10.52;9.63;;;24.20;90.80;;;;;;5097688;28;20024;-61
2022/08/17 12:42:29;;;;;;;;;;;24.20;90.70;;;;;;5096806;28;20232;-61
2022/08/17 12:44:55;;;;;;;9.02;8.27;;;24.20;90.80;;;;;;5093952;28;19934;-62
2022/08/17 12:48:02;;;;;;;;;;;;;;;;;;;;;
2022/08/17 12:50:28;;;;;;;8.93;8.23;;;24.20;90.70;;;;;;5085355;28;20066;-62
2022/08/17 12:52:54;;;;;;;10.13;9.23;;;24.20;90.60;;;;;;5082663;28;20536;-62
2022/08/17 12:55:22;;;;;;;9.80;8.90;;;24.20;90.50;;;;;;5081205;28;20042;-70
2022/08/17 12:57:50;;;;;;;9.48;8.68;;;24.30;90.30;;;;;;5083062;28;20477;-63
2022/08/17 13:00:39;;;;;;;11.20;10.07;;;24.40;90.30;;;;;;5088413;28;20029;-62
2022/08/17 13:03:19;;;;;;;10.93;9.88;;;24.50;90.00;;;;;;5075803;28;21540;-62
2022/08/17 13:05:51;;;;;;;10.20;9.20;;;24.50;89.80;;;;;;5104389;28;20501;-62
2022/08/17 13:08:22;;;;;;;11.60;10.60;;;24.40;89.80;;;;;;5093042;28;20028;-62
2022/08/17 13:10:56;;;;;;;11.98;10.77;;;24.40;90.00;;;;;;5103463;28;20026;-57
2022/08/17 13:13:25;;;;;;;10.65;9.75;;;24.30;90.10;;;;;;5088455;28;20028;-58
2022/08/17 13:15:54;;;;;;;11.38;10.38;;;24.20;90.20;;;;;;5094778;28;20039;-57
2022/08/17 13:18:38;;;;;;;10.52;9.63;;;24.20;90.30;;;;;;5088946;28;20034;-57
2022/08/17 13:21:06;;;;;;;10.95;10.00;;;24.10;90.30;;;;;;5085420;28;20310;-56
2022/08/17 13:23:32;;;;;;;11.27;9.77;;;24.00;90.50;;;;;;5090633;28;20024;-57
2022/08/17 13:26:14;;;;;;;11.05;10.05;;;23.90;90.80;;;;;;5092670;28;20031;-57
2022/08/17 13:28:50;;;;;;;10.82;9.82;;;23.90;90.90;;;;;;5095171;28;20481;-57
2022/08/17 13:31:26;;;;;;;11.55;10.55;;;23.80;91.00;;;;;;5087592;28;20389;-55
2022/08/17 13:34:18;;;;;;;9.68;8.77;;;23.80;91.10;;;;;;5091067;28;20020;-56
2022/08/17 13:36:45;;;;;;;10.18;9.38;;;23.80;91.10;;;;;;5097480;28;20024;-57
2022/08/17 13:39:20;;;;;;;11.77;10.75;;;23.70;91.30;;;;;;5094517;28;20020;-57